createdAt,value
2019-03-05T00:00:37.240Z,8.20
2019-03-05T00:02:38.643Z,7.30
2019-03-05T00:04:40.007Z,7.33
2019-03-05T00:06:41.417Z,6.70
2019-03-05T00:08:42.809Z,7.07
2019-03-05T00:10:44.188Z,6.83
2019-03-05T00:12:45.556Z,7.30
2019-03-05T00:14:46.953Z,6.70
2019-03-05T00:16:48.315Z,6.67
2019-03-05T00:18:49.667Z,7.53
2019-03-05T00:20:51.068Z,6.43
2019-03-05T00:22:52.435Z,6.77
2019-03-05T00:25:05.962Z,8.83
2019-03-05T00:27:07.747Z,8.00
2019-03-05T00:29:26.375Z,8.47
2019-03-05T00:31:36.457Z,10.63
2019-03-05T00:33:55.113Z,9.77
2019-03-05T00:36:17.463Z,10.20
2019-03-05T00:39:00.710Z,8.87
2019-03-05T00:41:16.575Z,7.60
2019-03-05T00:43:44.445Z,7.47
2019-03-05T00:46:15.521Z,7.30
2019-03-05T00:48:46.792Z,7.10
2019-03-05T00:51:24.617Z,7.60
2019-03-05T00:53:46.310Z,6.57
2019-03-05T00:56:05.285Z,8.87
2019-03-05T00:58:21.058Z,7.67
2019-03-05T01:01:15.849Z,7.00
2019-03-05T01:03:34.740Z,5.73
2019-03-05T01:06:15.628Z,9.80
2019-03-05T01:08:19.621Z,5.50
2019-03-05T01:10:21.881Z,10.10
2019-03-05T01:12:23.449Z,7.30
2019-03-05T01:14:25.454Z,10.33
2019-03-05T01:16:28.722Z,11.20
2019-03-05T01:18:30.127Z,6.47
2019-03-05T01:20:31.491Z,7.30
2019-03-05T01:22:32.885Z,7.13
2019-03-05T01:24:34.253Z,8.67
2019-03-05T01:26:35.655Z,6.30
2019-03-05T01:28:37.174Z,7.77
2019-03-05T01:31:00.373Z,9.80
2019-03-05T01:33:12.488Z,7.57
2019-03-05T01:35:18.418Z,12.77
2019-03-05T01:37:19.820Z,9.43
2019-03-05T01:39:25.823Z,7.53
2019-03-05T01:41:27.546Z,8.00
2019-03-05T01:43:28.939Z,10.33
2019-03-05T01:45:30.301Z,6.93
2019-03-05T01:47:31.687Z,9.83
2019-03-05T01:49:33.085Z,6.67
2019-03-05T01:51:34.462Z,6.53
2019-03-05T01:53:35.881Z,9.80
2019-03-05T01:55:37.275Z,6.53
2019-03-05T01:57:38.636Z,7.70
2019-03-05T01:59:40.021Z,9.18
2019-03-05T02:01:41.384Z,8.07
2019-03-05T02:03:42.793Z,8.50
2019-03-05T02:05:44.388Z,5.77
2019-03-05T02:07:45.994Z,6.20
2019-03-05T02:09:47.457Z,9.37
2019-03-05T02:11:48.821Z,6.77
2019-03-05T02:13:50.213Z,7.97
2019-03-05T02:15:51.617Z,6.30
2019-03-05T02:17:52.968Z,8.10
2019-03-05T02:19:54.360Z,7.43
2019-03-05T02:21:55.737Z,5.97
2019-03-05T02:24:42.621Z,6.47
2019-03-05T02:27:07.366Z,7.10
2019-03-05T02:29:14.473Z,7.00
2019-03-05T02:31:33.433Z,7.37
2019-03-05T02:33:52.013Z,4.43
2019-03-05T02:36:39.904Z,5.93
2019-03-05T02:39:32.010Z,8.37
2019-03-05T02:42:15.268Z,5.43
2019-03-05T02:44:58.310Z,4.63
2019-03-05T02:47:59.906Z,3.70
2019-03-05T02:50:42.941Z,10.37
2019-03-05T02:53:26.049Z,3.83
2019-03-05T02:56:09.091Z,3.73
2019-03-05T02:58:30.183Z,4.30
2019-03-05T03:01:11.473Z,5.40
2019-03-05T03:03:52.644Z,5.00
2019-03-05T03:09:37.240Z,4.13
2019-03-05T03:11:58.502Z,3.50
2019-03-05T03:14:19.775Z,3.37
2019-03-05T03:16:21.218Z,5.07
2019-03-05T03:18:42.500Z,6.73
2019-03-05T03:21:03.773Z,4.83
2019-03-05T03:23:25.098Z,4.03
2019-03-05T03:25:46.436Z,4.27
2019-03-05T03:28:07.717Z,3.50
2019-03-05T03:30:28.980Z,4.23
2019-03-05T03:32:43.715Z,6.70
2019-03-05T03:38:15.027Z,6.07
2019-03-05T03:40:36.507Z,4.47
2019-03-05T03:42:57.799Z,4.63
2019-03-05T03:45:19.749Z,6.27
2019-03-05T03:47:41.011Z,6.90
2019-03-05T03:50:24.480Z,3.63
2019-03-05T03:52:45.725Z,4.20
2019-03-05T03:55:28.814Z,4.53
2019-03-05T03:57:50.118Z,4.70
2019-03-05T03:59:51.550Z,5.40
2019-03-05T04:02:12.838Z,4.80
2019-03-05T04:04:34.148Z,3.70
2019-03-05T04:06:55.395Z,3.97
2019-03-05T04:09:16.696Z,4.50
2019-03-05T04:11:37.976Z,4.17
2019-03-05T04:14:01.126Z,6.50
2019-03-05T04:16:24.336Z,3.90
2019-03-05T04:18:47.480Z,5.70
2019-03-05T04:21:08.721Z,4.23
2019-03-05T04:23:30.014Z,8.40
2019-03-05T04:25:51.302Z,5.20
2019-03-05T04:28:12.865Z,6.23
2019-03-05T04:30:34.112Z,6.53
2019-03-05T04:32:55.352Z,4.53
2019-03-05T04:35:16.825Z,4.20
2019-03-05T04:37:38.074Z,4.40
2019-03-05T04:39:59.336Z,5.47
2019-03-05T04:42:20.615Z,5.77
2019-03-05T04:47:24.645Z,4.90
2019-03-05T04:52:35.643Z,5.10
2019-03-05T04:54:56.955Z,5.23
2019-03-05T04:57:18.201Z,4.23
2019-03-05T04:59:39.451Z,4.90
2019-03-05T05:01:54.262Z,5.10
2019-03-05T05:04:15.730Z,4.70
2019-03-05T05:06:36.989Z,4.83
2019-03-05T05:08:58.266Z,3.80
2019-03-05T05:11:19.576Z,4.90
2019-03-05T05:13:40.834Z,6.07
2019-03-05T05:16:02.122Z,4.97
2019-03-05T05:18:23.362Z,6.57
2019-03-05T05:20:44.643Z,4.67
2019-03-05T05:23:05.893Z,5.00
2019-03-05T05:25:27.515Z,6.63
2019-03-05T05:27:48.846Z,6.63
2019-03-05T05:30:54.776Z,7.13
2019-03-05T05:33:16.048Z,5.65
2019-03-05T05:35:37.299Z,7.83
2019-03-05T05:37:58.576Z,5.70
2019-03-05T05:40:40.547Z,8.00
2019-03-05T05:43:24.191Z,8.33
2019-03-05T05:46:05.349Z,5.57
2019-03-05T05:48:26.597Z,8.43
2019-03-05T05:50:47.841Z,6.00
2019-03-05T05:53:09.133Z,6.10
2019-03-05T05:55:30.376Z,7.13
2019-03-05T05:57:51.648Z,5.93
2019-03-05T06:03:23.755Z,4.73
2019-03-05T06:05:45.030Z,5.85
2019-03-05T06:08:06.281Z,6.10
2019-03-05T06:10:27.573Z,7.30
2019-03-05T06:12:48.884Z,7.90
2019-03-05T06:18:13.819Z,5.07
2019-03-05T06:20:35.083Z,5.50
2019-03-05T06:22:56.331Z,5.13
2019-03-05T06:25:17.624Z,6.97
2019-03-05T06:27:38.941Z,5.70
2019-03-05T06:29:53.922Z,6.60
2019-03-05T06:32:17.400Z,4.60
2019-03-05T06:34:58.261Z,6.13
2019-03-05T06:37:18.333Z,3.80
2019-03-05T06:39:38.182Z,4.53
2019-03-05T06:41:39.563Z,4.90
2019-03-05T06:43:40.921Z,7.70
2019-03-05T06:45:42.320Z,4.57
2019-03-05T06:47:43.775Z,5.70
2019-03-05T06:49:45.140Z,6.23
2019-03-05T06:51:46.524Z,7.50
2019-03-05T06:53:47.884Z,8.30
2019-03-05T06:55:49.270Z,3.65
2019-03-05T06:57:50.633Z,10.00
2019-03-05T06:59:52.415Z,4.60
2019-03-05T07:01:53.801Z,3.37
2019-03-05T07:03:55.158Z,5.27
2019-03-05T07:07:20.742Z,5.53
2019-03-05T07:09:37.045Z,10.93
2019-03-05T07:12:01.750Z,4.40
2019-03-05T07:14:23.248Z,5.17
2019-03-05T07:16:36.156Z,3.63
2019-03-05T07:18:41.563Z,3.50
2019-03-05T07:21:31.528Z,4.93
2019-03-05T07:23:58.141Z,3.13
2019-03-05T07:25:59.952Z,4.97
2019-03-05T07:28:10.928Z,5.80
2019-03-05T07:30:15.427Z,4.37
2019-03-05T07:32:16.780Z,6.30
2019-03-05T07:34:22.722Z,6.60
2019-03-05T07:36:24.110Z,7.03
2019-03-05T07:38:25.460Z,5.00
2019-03-05T07:40:26.864Z,4.20
2019-03-05T07:42:28.204Z,4.10
2019-03-05T07:44:29.561Z,5.00
2019-03-05T07:46:30.960Z,4.13
2019-03-05T07:48:32.350Z,5.37
2019-03-05T07:50:33.708Z,5.07
2019-03-05T07:52:35.083Z,4.30
2019-03-05T07:54:36.451Z,3.33
2019-03-05T07:56:37.838Z,3.17
2019-03-05T07:58:39.187Z,3.03
2019-03-05T08:00:40.552Z,3.97
2019-03-05T08:02:41.988Z,3.00
2019-03-05T08:04:43.400Z,2.47
2019-03-05T08:06:44.766Z,4.17
2019-03-05T08:09:28.785Z,3.33
2019-03-05T08:11:31.855Z,3.43
2019-03-05T08:13:39.137Z,3.23
2019-03-05T08:16:08.438Z,5.53
2019-03-05T08:18:09.809Z,3.90
2019-03-05T08:20:11.618Z,3.30
2019-03-05T08:22:12.973Z,7.70
2019-03-05T08:24:14.371Z,4.60
2019-03-05T08:26:15.733Z,2.73
2019-03-05T08:28:17.500Z,3.83
2019-03-05T08:30:19.072Z,6.90
2019-03-05T08:32:20.421Z,2.80
2019-03-05T08:34:21.776Z,3.30
2019-03-05T08:36:23.177Z,4.47
2019-03-05T08:38:24.576Z,4.00
2019-03-05T08:40:25.932Z,3.33
2019-03-05T08:42:27.351Z,3.10
2019-03-05T08:44:28.697Z,2.70
2019-03-05T08:46:30.057Z,3.10
2019-03-05T08:48:31.509Z,2.70
2019-03-05T08:50:33.082Z,3.60
2019-03-05T08:52:34.470Z,2.63
2019-03-05T08:54:35.814Z,5.40
2019-03-05T08:56:37.163Z,2.63
2019-03-05T08:58:38.628Z,2.90
2019-03-05T09:00:39.971Z,3.20
2019-03-05T09:02:48.721Z,3.63
2019-03-05T09:04:44.667Z,2.77
2019-03-05T09:06:46.015Z,3.30
2019-03-05T09:08:47.408Z,7.23
2019-03-05T09:10:50.270Z,3.90
2019-03-05T09:12:51.624Z,3.30
2019-03-05T09:14:53.016Z,7.43
2019-03-05T09:16:54.402Z,5.03
2019-03-05T09:18:55.773Z,3.33
2019-03-05T09:20:57.137Z,5.17
2019-03-05T09:22:58.547Z,5.60
2019-03-05T09:24:59.908Z,3.50
2019-03-05T09:27:01.265Z,4.37
2019-03-05T09:29:03.248Z,4.00
2019-03-05T09:31:10.541Z,6.80
2019-03-05T09:33:11.884Z,4.10
2019-03-05T09:35:15.263Z,6.30
2019-03-05T09:37:16.780Z,3.40
2019-03-05T09:39:18.250Z,3.30
2019-03-05T09:41:19.602Z,3.80
2019-03-05T09:43:21.130Z,4.83
2019-03-05T09:45:23.394Z,7.77
2019-03-05T09:47:25.903Z,4.90
2019-03-05T09:49:27.284Z,3.50
2019-03-05T09:51:28.627Z,3.73
2019-03-05T09:53:29.997Z,3.90
2019-03-05T09:55:34.277Z,7.40
2019-03-05T09:57:37.557Z,3.20
2019-03-05T09:59:38.965Z,3.30
2019-03-05T10:01:40.542Z,9.23
2019-03-05T10:03:41.913Z,2.93
2019-03-05T10:05:43.603Z,2.93
2019-03-05T10:07:45.051Z,3.80
2019-03-05T10:09:46.515Z,5.17
2019-03-05T10:11:48.385Z,3.70
2019-03-05T10:13:49.782Z,4.40
2019-03-05T10:15:53.370Z,3.33
2019-03-05T10:17:54.473Z,3.77
2019-03-05T10:19:55.818Z,3.47
2019-03-05T10:21:57.282Z,3.63
2019-03-05T10:24:09.681Z,5.27
2019-03-05T10:26:02.344Z,2.93
2019-03-05T10:28:04.217Z,3.37
2019-03-05T10:30:26.287Z,7.37
2019-03-05T10:32:27.618Z,3.90
2019-03-05T10:34:29.010Z,3.90
2019-03-05T10:36:30.579Z,3.37
2019-03-05T10:38:32.043Z,7.67
2019-03-05T10:40:50.894Z,3.70
2019-03-05T10:42:52.245Z,2.80
2019-03-05T10:44:53.613Z,3.63
2019-03-05T10:46:56.105Z,4.30
2019-03-05T10:48:57.960Z,5.97
2019-03-05T10:50:59.367Z,4.73
2019-03-05T10:53:00.767Z,4.00
2019-03-05T10:55:06.942Z,4.00
2019-03-05T10:57:08.297Z,3.80
2019-03-05T10:59:09.709Z,3.97
2019-03-05T11:01:11.156Z,4.13
2019-03-05T11:03:12.937Z,5.37
2019-03-05T11:05:14.308Z,5.33
2019-03-05T11:07:15.676Z,3.93
2019-03-05T11:09:18.370Z,4.30
2019-03-05T11:11:19.952Z,4.10
2019-03-05T11:13:21.336Z,6.03
2019-03-05T11:15:29.858Z,4.20
2019-03-05T11:17:31.623Z,4.40
2019-03-05T11:19:33.031Z,3.87
2019-03-05T11:21:34.502Z,4.10
2019-03-05T11:23:35.876Z,4.00
2019-03-05T11:25:37.265Z,4.00
2019-03-05T11:27:38.858Z,3.53
2019-03-05T11:29:40.197Z,3.33
2019-03-05T11:31:41.595Z,3.80
2019-03-05T11:33:42.963Z,5.60
2019-03-05T11:35:44.344Z,3.90
2019-03-05T11:37:45.943Z,3.40
2019-03-05T11:39:57.701Z,5.03
2019-03-05T11:41:59.062Z,4.00
2019-03-05T11:44:00.583Z,2.60
2019-03-05T11:46:02.764Z,4.97
2019-03-05T11:48:04.222Z,3.37
2019-03-05T11:50:09.450Z,5.90
2019-03-05T11:52:10.909Z,4.43
2019-03-05T11:54:12.273Z,3.17
2019-03-05T11:56:13.660Z,3.50
2019-03-05T11:58:15.147Z,2.73
2019-03-05T12:00:33.305Z,4.17
2019-03-05T12:02:35.064Z,4.30
2019-03-05T12:04:36.422Z,5.53
2019-03-05T12:06:37.794Z,5.40
2019-03-05T12:08:39.210Z,4.47
2019-03-05T12:10:40.679Z,3.30
2019-03-05T12:12:42.027Z,3.93
2019-03-05T12:14:43.420Z,2.80
2019-03-05T12:16:44.785Z,4.63
2019-03-05T12:18:46.156Z,2.40
2019-03-05T12:20:47.567Z,2.00
2019-03-05T12:22:49.811Z,1.57
2019-03-05T12:24:51.180Z,2.17
2019-03-05T12:26:52.564Z,2.20
2019-03-05T12:28:53.928Z,2.77
2019-03-05T12:30:55.270Z,3.40
2019-03-05T12:32:56.652Z,3.27
2019-03-05T12:34:58.058Z,3.47
2019-03-05T12:36:59.425Z,3.80
2019-03-05T12:39:00.805Z,3.70
2019-03-05T12:41:02.160Z,5.13
2019-03-05T12:43:03.912Z,5.33
2019-03-05T12:45:09.075Z,4.27
2019-03-05T12:47:10.542Z,4.60
2019-03-05T12:49:11.891Z,3.90
2019-03-05T12:51:13.355Z,3.43
2019-03-05T12:53:16.216Z,3.50
2019-03-05T12:55:18.134Z,3.50
2019-03-05T12:57:19.478Z,2.77
2019-03-05T12:59:20.877Z,3.13
2019-03-05T13:01:22.284Z,4.27
2019-03-05T13:03:23.689Z,5.10
2019-03-05T13:05:25.051Z,2.73
2019-03-05T13:07:26.449Z,4.10
2019-03-05T13:09:27.796Z,4.30
2019-03-05T13:11:29.141Z,2.83
2019-03-05T13:13:30.534Z,2.50
2019-03-05T13:15:38.473Z,3.93
2019-03-05T13:17:39.838Z,5.00
2019-03-05T13:19:44.362Z,3.33
2019-03-05T13:21:48.639Z,3.27
2019-03-05T13:23:48.099Z,4.10
2019-03-05T13:25:49.445Z,4.00
2019-03-05T13:27:52.574Z,3.80
2019-03-05T13:29:53.919Z,2.67
2019-03-05T13:31:55.278Z,3.13
2019-03-05T13:33:56.674Z,3.60
2019-03-05T13:35:58.069Z,3.70
2019-03-05T13:38:03.392Z,3.90
2019-03-05T13:40:13.640Z,3.87
2019-03-05T13:42:15.081Z,3.70
2019-03-05T13:44:32.053Z,4.47
2019-03-05T13:46:31.848Z,3.43
2019-03-05T13:48:41.599Z,4.80
2019-03-05T13:50:51.477Z,4.17
2019-03-05T13:53:01.196Z,4.77
2019-03-05T13:55:26.899Z,3.33
2019-03-05T13:57:58.255Z,3.63
2019-03-05T13:59:59.617Z,2.30
2019-03-05T14:02:01.193Z,2.40
2019-03-05T14:04:08.311Z,1.83
2019-03-05T14:06:24.663Z,2.73
2019-03-05T14:08:31.748Z,2.10
2019-03-05T14:10:33.154Z,2.43
2019-03-05T14:12:34.546Z,1.83
2019-03-05T14:14:35.908Z,2.30
2019-03-05T14:16:37.426Z,28.03
2019-03-05T14:18:38.790Z,49.27
2019-03-05T14:20:40.182Z,50.83
2019-03-05T14:22:41.626Z,5.80
2019-03-05T14:24:43.112Z,3.73
2019-03-05T14:26:44.475Z,2.80
2019-03-05T14:28:45.850Z,6.47
2019-03-05T14:30:47.194Z,2.90
2019-03-05T14:32:48.653Z,3.53
2019-03-05T14:34:58.706Z,14.30
2019-03-05T14:37:00.067Z,21.10
2019-03-05T14:39:03.535Z,3.87
2019-03-05T14:41:05.147Z,3.27
2019-03-05T14:43:06.542Z,4.57
2019-03-05T14:45:21.089Z,2.93
2019-03-05T14:47:22.995Z,4.03
2019-03-05T14:49:24.679Z,3.00
2019-03-05T14:51:26.024Z,3.03
2019-03-05T14:53:27.974Z,3.40
2019-03-05T14:55:29.361Z,4.37
2019-03-05T14:57:30.721Z,5.03
2019-03-05T14:59:32.127Z,3.50
2019-03-05T15:01:33.526Z,4.80
2019-03-05T15:03:34.898Z,5.00
2019-03-05T15:05:36.434Z,3.37
2019-03-05T15:07:37.774Z,5.80
2019-03-05T15:09:39.161Z,5.20
2019-03-05T15:11:40.529Z,4.80
2019-03-05T15:13:41.870Z,4.40
2019-03-05T15:15:43.563Z,5.60
2019-03-05T15:17:45.236Z,3.87
2019-03-05T15:19:46.585Z,3.60
2019-03-05T15:21:48.019Z,7.67
2019-03-05T15:23:49.359Z,4.70
2019-03-05T15:25:50.734Z,4.20
2019-03-05T15:27:52.184Z,4.83
2019-03-05T15:29:53.766Z,6.73
2019-03-05T15:31:55.240Z,3.93
2019-03-05T15:33:56.577Z,3.83
2019-03-05T15:35:57.929Z,3.93
2019-03-05T15:37:59.748Z,5.00
2019-03-05T15:40:01.353Z,4.83
2019-03-05T15:42:02.869Z,3.60
2019-03-05T15:44:04.236Z,3.77
2019-03-05T15:46:05.611Z,3.80
2019-03-05T15:48:06.970Z,3.30
2019-03-05T15:50:26.397Z,3.40
2019-03-05T15:52:27.767Z,2.63
2019-03-05T15:54:29.139Z,3.53
2019-03-05T15:56:30.506Z,3.03
2019-03-05T15:58:31.896Z,2.60
2019-03-05T16:00:33.445Z,3.00
2019-03-05T16:02:35.291Z,3.57
2019-03-05T16:04:39.688Z,5.17
2019-03-05T16:06:40.054Z,4.43
2019-03-05T16:08:41.512Z,4.10
2019-03-05T16:10:42.868Z,4.63
2019-03-05T16:12:44.218Z,8.10
2019-03-05T16:14:47.526Z,5.67
2019-03-05T16:16:51.667Z,10.63
2019-03-05T16:18:52.129Z,11.20
2019-03-05T16:20:53.506Z,6.70
2019-03-05T16:22:56.646Z,24.33
2019-03-05T16:24:58.232Z,15.13
2019-03-05T16:26:59.561Z,5.53
2019-03-05T16:29:01.095Z,10.17
2019-03-05T16:31:21.684Z,19.23
2019-03-05T16:33:36.954Z,16.20
2019-03-05T16:35:45.236Z,12.87
2019-03-05T16:37:48.687Z,5.33
2019-03-05T16:39:52.022Z,20.03
2019-03-05T16:42:07.365Z,8.83
2019-03-05T16:44:19.531Z,4.90
2019-03-05T16:46:38.042Z,3.43
2019-03-05T16:48:41.320Z,4.23
2019-03-05T16:50:56.934Z,5.10
2019-03-05T16:53:12.095Z,4.73
2019-03-05T16:55:18.021Z,10.43
2019-03-05T16:57:37.758Z,3.90
2019-03-05T16:59:49.724Z,3.90
2019-03-05T17:01:55.657Z,4.43
2019-03-05T17:04:01.840Z,5.30
2019-03-05T17:06:05.147Z,3.70
2019-03-05T17:08:08.828Z,3.30
2019-03-05T17:10:15.450Z,4.80
2019-03-05T17:12:16.796Z,3.70
2019-03-05T17:14:18.189Z,2.40
2019-03-05T17:16:19.843Z,2.53
2019-03-05T17:18:21.228Z,2.77
2019-03-05T17:20:22.845Z,5.23
2019-03-05T17:22:24.229Z,2.53
2019-03-05T17:24:25.800Z,4.30
2019-03-05T17:26:27.303Z,4.20
2019-03-05T17:28:28.687Z,3.00
2019-03-05T17:30:30.388Z,3.53
2019-03-05T17:32:31.745Z,5.33
2019-03-05T17:34:33.607Z,3.20
2019-03-05T17:36:35.033Z,5.73
2019-03-05T17:38:36.391Z,4.28
2019-03-05T17:40:37.763Z,5.87
2019-03-05T17:42:39.377Z,3.80
2019-03-05T17:44:41.226Z,4.42
2019-03-05T17:46:42.699Z,3.85
2019-03-05T17:48:44.064Z,3.35
2019-03-05T17:50:45.484Z,4.78
2019-03-05T17:52:46.944Z,3.10
2019-03-05T17:54:48.376Z,3.10
2019-03-05T17:56:49.838Z,3.45
2019-03-05T17:58:51.298Z,6.87
2019-03-05T18:00:52.874Z,2.83
2019-03-05T18:02:54.421Z,4.25
2019-03-05T18:04:55.736Z,4.42
2019-03-05T18:06:57.163Z,3.30
2019-03-05T18:08:58.535Z,2.87
2019-03-05T18:10:59.896Z,3.40
2019-03-05T18:13:01.321Z,2.72
2019-03-05T18:15:07.980Z,5.40
2019-03-05T18:17:09.351Z,2.80
2019-03-05T18:19:10.880Z,3.42
2019-03-05T18:21:12.440Z,7.47
2019-03-05T18:23:13.850Z,3.30
2019-03-05T18:25:16.912Z,4.17
2019-03-05T18:27:18.280Z,3.40
2019-03-05T18:29:19.639Z,3.60
2019-03-05T18:31:21.361Z,3.65
2019-03-05T18:33:22.774Z,4.83
2019-03-05T18:35:24.118Z,3.23
2019-03-05T18:37:25.841Z,4.40
2019-03-05T18:39:27.242Z,4.70
2019-03-05T18:41:28.992Z,4.07
2019-03-05T18:43:30.401Z,4.50
2019-03-05T18:45:36.062Z,4.50
2019-03-05T18:47:37.479Z,6.00
2019-03-05T18:49:38.845Z,3.47
2019-03-05T18:51:40.464Z,4.37
2019-03-05T18:53:41.826Z,5.90
2019-03-05T18:55:43.283Z,4.63
2019-03-05T18:57:44.706Z,3.10
2019-03-05T18:59:46.186Z,3.43
2019-03-05T19:01:47.738Z,4.80
2019-03-05T19:03:49.099Z,4.08
2019-03-05T19:05:50.519Z,4.10
2019-03-05T19:07:51.946Z,7.85
2019-03-05T19:09:53.314Z,8.00
2019-03-05T19:11:55.000Z,6.10
2019-03-05T19:13:56.350Z,5.92
2019-03-05T19:15:57.750Z,10.65
2019-03-05T19:17:59.138Z,5.10
2019-03-05T19:20:00.556Z,5.62
2019-03-05T19:22:02.104Z,6.17
2019-03-05T19:24:03.481Z,6.90
2019-03-05T19:26:06.089Z,4.78
2019-03-05T19:28:07.467Z,5.78
2019-03-05T19:30:19.142Z,6.40
2019-03-05T19:32:20.503Z,7.67
2019-03-05T19:34:21.846Z,7.40
2019-03-05T19:36:23.267Z,6.37
2019-03-05T19:38:24.615Z,7.28
2019-03-05T19:40:31.393Z,7.15
2019-03-05T19:42:32.857Z,10.35
2019-03-05T19:44:34.268Z,7.47
2019-03-05T19:46:35.714Z,8.65
2019-03-05T19:48:37.155Z,7.67
2019-03-05T19:50:38.610Z,9.53
2019-03-05T19:52:40.061Z,8.60
2019-03-05T19:54:41.479Z,8.35
2019-03-05T19:56:42.897Z,9.05
2019-03-05T19:58:44.251Z,9.53
2019-03-05T20:01:00.251Z,10.23
2019-03-05T20:03:01.682Z,9.85
2019-03-05T20:05:05.456Z,9.80
2019-03-05T20:07:07.166Z,10.40
2019-03-05T20:09:08.599Z,8.80
2019-03-05T20:11:10.219Z,10.23
2019-03-05T20:13:11.825Z,11.45
2019-03-05T20:15:15.786Z,11.55
2019-03-05T20:17:17.475Z,10.78
2019-03-05T20:19:18.877Z,10.90
2019-03-05T20:21:20.224Z,11.20
2019-03-05T20:23:21.600Z,12.55
2019-03-05T20:25:28.515Z,12.18
2019-03-05T20:27:30.037Z,10.58
2019-03-05T20:29:31.419Z,9.50
2019-03-05T20:31:32.804Z,10.53
2019-03-05T20:33:34.281Z,11.15
2019-03-05T20:35:35.721Z,11.35
2019-03-05T20:37:37.386Z,12.50
2019-03-05T20:39:38.851Z,16.05
2019-03-05T20:41:40.273Z,10.80
2019-03-05T20:43:41.628Z,12.70
2019-03-05T20:46:00.575Z,11.48
2019-03-05T20:48:02.493Z,10.68
2019-03-05T20:50:08.884Z,11.55
2019-03-05T20:52:10.237Z,10.90
2019-03-05T20:54:11.842Z,10.58
2019-03-05T20:56:13.546Z,10.75
2019-03-05T20:58:14.895Z,12.43
2019-03-05T21:00:35.883Z,10.90
2019-03-05T21:02:37.211Z,9.80
2019-03-05T21:04:38.612Z,11.13
2019-03-05T21:06:40.320Z,11.80
2019-03-05T21:08:41.770Z,10.87
2019-03-05T21:10:43.146Z,11.20
2019-03-05T21:12:44.730Z,9.07
2019-03-05T21:14:46.106Z,8.73
2019-03-05T21:16:47.475Z,11.50
2019-03-05T21:18:49.086Z,10.37
2019-03-05T21:20:50.417Z,7.87
2019-03-05T21:22:51.884Z,7.47
2019-03-05T21:24:53.287Z,8.17
2019-03-05T21:26:54.683Z,10.37
2019-03-05T21:28:56.056Z,10.43
2019-03-05T21:30:57.439Z,9.00
2019-03-05T21:32:58.936Z,10.73
2019-03-05T21:35:00.331Z,10.93
2019-03-05T21:37:01.784Z,7.20
2019-03-05T21:39:10.891Z,10.80
2019-03-05T21:41:12.208Z,9.53
2019-03-05T21:43:13.672Z,10.40
2019-03-05T21:45:34.499Z,12.80
2019-03-05T21:47:36.163Z,10.37
2019-03-05T21:49:37.567Z,10.80
2019-03-05T21:51:38.913Z,10.07
2019-03-05T21:53:40.234Z,9.43
2019-03-05T21:55:41.659Z,10.18
2019-03-05T21:57:43.433Z,11.90
2019-03-05T21:59:44.838Z,12.30
2019-03-05T22:01:46.200Z,10.30
2019-03-05T22:03:47.577Z,10.45
2019-03-05T22:05:48.940Z,8.90
2019-03-05T22:07:50.610Z,8.53
2019-03-05T22:09:59.824Z,7.95
2019-03-05T22:12:01.290Z,9.10
2019-03-05T22:14:02.699Z,10.78
2019-03-05T22:16:04.208Z,11.35
2019-03-05T22:18:05.530Z,8.28
2019-03-05T22:20:11.504Z,8.28
2019-03-05T22:22:12.962Z,12.70
2019-03-05T22:24:14.322Z,10.88
2019-03-05T22:26:15.959Z,11.75
2019-03-05T22:28:17.293Z,8.40
2019-03-05T22:30:37.982Z,8.40
2019-03-05T22:32:39.712Z,10.58
2019-03-05T22:34:41.141Z,9.28
2019-03-05T22:36:42.545Z,11.35
2019-03-05T22:38:43.920Z,9.48
2019-03-05T22:40:45.317Z,11.33
2019-03-05T22:42:46.667Z,9.15
2019-03-05T22:44:48.085Z,9.58
2019-03-05T22:46:49.438Z,8.63
2019-03-05T22:48:50.820Z,10.75
2019-03-05T22:50:52.431Z,11.00
2019-03-05T22:52:53.772Z,9.75
2019-03-05T22:54:55.169Z,10.82
2019-03-05T22:56:56.558Z,10.75
2019-03-05T22:58:57.911Z,9.58
2019-03-05T23:01:02.622Z,8.63
2019-03-05T23:03:21.001Z,12.30
2019-03-05T23:05:22.933Z,8.80
2019-03-05T23:07:24.332Z,13.25
2019-03-05T23:09:26.602Z,8.63
2019-03-05T23:11:28.137Z,12.45
2019-03-05T23:13:30.111Z,13.22
2019-03-05T23:15:32.099Z,13.15
2019-03-05T23:17:33.696Z,11.65
2019-03-05T23:19:35.066Z,10.80
2019-03-05T23:21:37.962Z,9.95
2019-03-05T23:23:39.527Z,10.08
2019-03-05T23:25:40.975Z,8.75
2019-03-05T23:27:42.323Z,9.65
2019-03-05T23:29:44.227Z,9.90
2019-03-05T23:31:45.674Z,9.10
2019-03-05T23:33:47.175Z,10.28
2019-03-05T23:35:48.773Z,11.48
2019-03-05T23:37:50.096Z,9.68
2019-03-05T23:39:51.505Z,11.40
2019-03-05T23:41:52.938Z,9.50
2019-03-05T23:43:54.285Z,8.20
2019-03-05T23:45:55.759Z,9.55
2019-03-05T23:47:57.190Z,10.58
2019-03-05T23:49:58.564Z,9.60
2019-03-05T23:51:59.954Z,11.25
2019-03-05T23:54:01.327Z,9.10
2019-03-05T23:56:02.705Z,11.78
2019-03-05T23:58:04.077Z,12.33
